Main page
METAR-TAF:

METAR-TAF

Airports :

Velana International Airport

Malé, Maldives

latitude: 04-12N, longitude: 073-32E, elevation: 2 m

Current weather observation

The report was made 29 minutes ago, at 23:00 UTC
Wind 9 kt from the Northeast
Temperature 27°C
Humidity 70%
Pressure 1011 hPa
Visibility: 8000 m
Few clouds at a height of 1800 ft
Broken clouds at a height of 27000 ft

METAR: VRMM 212300Z 05009KT 8000 FEW018 BKN270 27/21 Q1011 NOSIG

Time: 04:29 (23:29 UTC)

Forecast

The report was made 6 hours and 29 minutes ago, at 17:00 UTC
Forecast valid from 21 at 18 UTC to 22 at 24 UTC
Wind 11 kt from the East
Visibility: 7000 m
Few clouds at a height of 1800 ft
Temporary
from 21 at 18 UTC to 21 at 24 UTC
Few clouds at a height of 1900 ft, Cumulonimbus.

TAF: VRMM 211700Z 2118/2224 08011KT 7000 FEW018 TEMPO 2118/2124 FEW019CB

Weather observations and forecasts of more than 4000 airports (METAR and TAF reports).

The available stations are represented by yellow and red dots on the map.

Hover mouse over dot to see the name of the station.

Then click to see weather observations and forecasts.

To change the map : click on the green buttons with a black cross to zoom in, on the green button with a dash to zoom out, or on the green arrows for adjacent maps.


METAR-TAF: